sensor_id;sensor_type;location;lat;lon;timestamp;P1;durP1;ratioP1;P2;durP2;ratioP2
18702;SDS011;9481;48.796;9.210;2022-11-23T00:02:25;2.50;;;1.33;;
18702;SDS011;9481;48.796;9.210;2022-11-23T00:04:51;6.10;;;1.90;;
18702;SDS011;9481;48.796;9.210;2022-11-23T00:07:17;2.97;;;1.90;;
18702;SDS011;9481;48.796;9.210;2022-11-23T00:09:42;4.63;;;1.47;;
18702;SDS011;9481;48.796;9.210;2022-11-23T00:12:08;5.23;;;1.80;;
18702;SDS011;9481;48.796;9.210;2022-11-23T00:14:34;5.93;;;1.70;;
18702;SDS011;9481;48.796;9.210;2022-11-23T00:17:00;5.60;;;1.93;;
18702;SDS011;9481;48.796;9.210;2022-11-23T00:19:25;4.80;;;1.90;;
18702;SDS011;9481;48.796;9.210;2022-11-23T00:21:51;4.30;;;2.03;;
18702;SDS011;9481;48.796;9.210;2022-11-23T00:24:17;6.70;;;2.20;;
18702;SDS011;9481;48.796;9.210;2022-11-23T00:26:42;4.73;;;1.80;;
18702;SDS011;9481;48.796;9.210;2022-11-23T00:29:08;5.17;;;2.20;;
18702;SDS011;9481;48.796;9.210;2022-11-23T00:31:34;7.80;;;2.10;;
18702;SDS011;9481;48.796;9.210;2022-11-23T00:33:59;4.50;;;1.43;;
18702;SDS011;9481;48.796;9.210;2022-11-23T00:36:26;5.73;;;1.87;;
18702;SDS011;9481;48.796;9.210;2022-11-23T00:38:52;3.80;;;1.70;;
18702;SDS011;9481;48.796;9.210;2022-11-23T00:41:19;5.90;;;1.77;;
18702;SDS011;9481;48.796;9.210;2022-11-23T00:43:48;3.33;;;1.50;;
18702;SDS011;9481;48.796;9.210;2022-11-23T00:46:16;5.50;;;1.70;;
18702;SDS011;9481;48.796;9.210;2022-11-23T00:48:48;4.27;;;1.60;;
18702;SDS011;9481;48.796;9.210;2022-11-23T00:51:18;4.87;;;1.70;;
18702;SDS011;9481;48.796;9.210;2022-11-23T00:53:46;6.50;;;1.90;;
18702;SDS011;9481;48.796;9.210;2022-11-23T00:56:14;2.67;;;1.30;;
18702;SDS011;9481;48.796;9.210;2022-11-23T00:58:40;4.20;;;2.07;;
18702;SDS011;9481;48.796;9.210;2022-11-23T01:01:07;5.40;;;2.00;;
18702;SDS011;9481;48.796;9.210;2022-11-23T01:03:38;2.37;;;1.63;;
18702;SDS011;9481;48.796;9.210;2022-11-23T01:06:07;5.37;;;1.77;;
18702;SDS011;9481;48.796;9.210;2022-11-23T01:08:37;7.00;;;1.90;;
18702;SDS011;9481;48.796;9.210;2022-11-23T01:11:06;4.03;;;1.80;;
18702;SDS011;9481;48.796;9.210;2022-11-23T01:13:35;2.33;;;1.30;;
18702;SDS011;9481;48.796;9.210;2022-11-23T01:16:03;5.60;;;1.80;;
18702;SDS011;9481;48.796;9.210;2022-11-23T01:18:34;4.93;;;1.57;;
18702;SDS011;9481;48.796;9.210;2022-11-23T01:21:00;5.07;;;1.90;;
18702;SDS011;9481;48.796;9.210;2022-11-23T01:23:27;4.80;;;1.53;;
18702;SDS011;9481;48.796;9.210;2022-11-23T01:25:54;3.23;;;1.63;;
18702;SDS011;9481;48.796;9.210;2022-11-23T01:28:20;3.60;;;1.40;;
18702;SDS011;9481;48.796;9.210;2022-11-23T01:30:46;3.33;;;1.40;;
18702;SDS011;9481;48.796;9.210;2022-11-23T01:33:11;3.77;;;1.40;;
18702;SDS011;9481;48.796;9.210;2022-11-23T01:35:37;3.93;;;1.30;;
18702;SDS011;9481;48.796;9.210;2022-11-23T01:38:03;4.50;;;1.30;;
18702;SDS011;9481;48.796;9.210;2022-11-23T01:40:29;3.73;;;1.30;;
18702;SDS011;9481;48.796;9.210;2022-11-23T01:42:56;2.63;;;1.50;;
18702;SDS011;9481;48.796;9.210;2022-11-23T01:45:33;2.97;;;1.20;;
18702;SDS011;9481;48.796;9.210;2022-11-23T01:48:08;4.23;;;1.37;;
18702;SDS011;9481;48.796;9.210;2022-11-23T01:50:51;4.70;;;1.60;;
18702;SDS011;9481;48.796;9.210;2022-11-23T01:53:18;5.63;;;1.53;;
18702;SDS011;9481;48.796;9.210;2022-11-23T01:55:45;3.37;;;1.33;;
18702;SDS011;9481;48.796;9.210;2022-11-23T01:58:13;6.00;;;1.43;;
18702;SDS011;9481;48.796;9.210;2022-11-23T02:00:44;3.47;;;1.40;;
18702;SDS011;9481;48.796;9.210;2022-11-23T02:03:10;2.57;;;1.30;;
18702;SDS011;9481;48.796;9.210;2022-11-23T02:05:40;3.90;;;1.60;;
18702;SDS011;9481;48.796;9.210;2022-11-23T02:08:10;4.00;;;1.53;;
18702;SDS011;9481;48.796;9.210;2022-11-23T02:10:41;3.77;;;1.27;;
18702;SDS011;9481;48.796;9.210;2022-11-23T02:13:08;4.50;;;1.60;;
18702;SDS011;9481;48.796;9.210;2022-11-23T02:15:36;2.83;;;1.37;;
18702;SDS011;9481;48.796;9.210;2022-11-23T02:18:04;3.13;;;1.57;;
18702;SDS011;9481;48.796;9.210;2022-11-23T02:20:38;2.63;;;1.37;;
18702;SDS011;9481;48.796;9.210;2022-11-23T02:25:54;3.57;;;1.50;;
18702;SDS011;9481;48.796;9.210;2022-11-23T02:28:32;2.80;;;1.50;;
18702;SDS011;9481;48.796;9.210;2022-11-23T02:31:09;2.77;;;1.17;;
18702;SDS011;9481;48.796;9.210;2022-11-23T02:33:38;2.90;;;1.40;;
18702;SDS011;9481;48.796;9.210;2022-11-23T02:36:20;3.83;;;1.43;;
18702;SDS011;9481;48.796;9.210;2022-11-23T02:39:11;5.03;;;1.50;;
18702;SDS011;9481;48.796;9.210;2022-11-23T02:41:47;5.50;;;1.93;;
18702;SDS011;9481;48.796;9.210;2022-11-23T02:47:00;3.63;;;1.70;;
18702;SDS011;9481;48.796;9.210;2022-11-23T02:49:26;3.97;;;1.40;;
18702;SDS011;9481;48.796;9.210;2022-11-23T02:51:52;2.43;;;1.30;;
18702;SDS011;9481;48.796;9.210;2022-11-23T02:54:18;5.63;;;1.13;;
18702;SDS011;9481;48.796;9.210;2022-11-23T02:56:44;4.33;;;1.27;;
18702;SDS011;9481;48.796;9.210;2022-11-23T02:59:09;4.37;;;1.43;;
18702;SDS011;9481;48.796;9.210;2022-11-23T03:01:35;3.77;;;1.57;;
18702;SDS011;9481;48.796;9.210;2022-11-23T03:04:01;3.83;;;1.57;;
18702;SDS011;9481;48.796;9.210;2022-11-23T03:06:27;4.83;;;1.50;;
18702;SDS011;9481;48.796;9.210;2022-11-23T03:08:52;2.23;;;1.30;;
18702;SDS011;9481;48.796;9.210;2022-11-23T03:11:18;1.73;;;1.20;;
18702;SDS011;9481;48.796;9.210;2022-11-23T03:13:43;3.37;;;1.50;;
18702;SDS011;9481;48.796;9.210;2022-11-23T03:16:09;4.70;;;1.50;;
18702;SDS011;9481;48.796;9.210;2022-11-23T03:18:35;5.60;;;2.10;;
18702;SDS011;9481;48.796;9.210;2022-11-23T03:21:04;2.73;;;2.00;;
18702;SDS011;9481;48.796;9.210;2022-11-23T03:23:32;2.90;;;1.40;;
18702;SDS011;9481;48.796;9.210;2022-11-23T03:26:00;4.63;;;1.60;;
18702;SDS011;9481;48.796;9.210;2022-11-23T03:28:26;3.63;;;1.40;;
18702;SDS011;9481;48.796;9.210;2022-11-23T03:30:52;5.77;;;1.57;;
18702;SDS011;9481;48.796;9.210;2022-11-23T03:33:18;5.43;;;1.40;;
18702;SDS011;9481;48.796;9.210;2022-11-23T03:35:44;3.03;;;1.30;;
18702;SDS011;9481;48.796;9.210;2022-11-23T03:38:11;3.83;;;1.20;;
18702;SDS011;9481;48.796;9.210;2022-11-23T03:40:37;4.80;;;1.40;;
18702;SDS011;9481;48.796;9.210;2022-11-23T03:43:03;7.30;;;1.50;;
18702;SDS011;9481;48.796;9.210;2022-11-23T03:45:29;4.00;;;1.37;;
18702;SDS011;9481;48.796;9.210;2022-11-23T03:47:55;2.83;;;1.43;;
18702;SDS011;9481;48.796;9.210;2022-11-23T03:50:21;4.83;;;1.40;;
18702;SDS011;9481;48.796;9.210;2022-11-23T03:52:49;4.50;;;1.00;;
18702;SDS011;9481;48.796;9.210;2022-11-23T03:55:15;4.97;;;1.30;;
18702;SDS011;9481;48.796;9.210;2022-11-23T03:57:41;2.37;;;1.10;;
18702;SDS011;9481;48.796;9.210;2022-11-23T04:00:07;5.43;;;1.30;;
18702;SDS011;9481;48.796;9.210;2022-11-23T04:02:34;3.77;;;1.33;;
18702;SDS011;9481;48.796;9.210;2022-11-23T04:05:00;2.27;;;1.03;;
18702;SDS011;9481;48.796;9.210;2022-11-23T04:07:26;3.93;;;1.30;;
18702;SDS011;9481;48.796;9.210;2022-11-23T04:09:52;4.67;;;1.63;;
18702;SDS011;9481;48.796;9.210;2022-11-23T04:12:17;3.03;;;1.20;;
18702;SDS011;9481;48.796;9.210;2022-11-23T04:14:43;7.43;;;1.20;;
18702;SDS011;9481;48.796;9.210;2022-11-23T04:17:09;4.70;;;1.17;;
18702;SDS011;9481;48.796;9.210;2022-11-23T04:19:34;4.43;;;1.30;;
18702;SDS011;9481;48.796;9.210;2022-11-23T04:22:00;5.27;;;1.50;;
18702;SDS011;9481;48.796;9.210;2022-11-23T04:24:26;2.40;;;1.20;;
18702;SDS011;9481;48.796;9.210;2022-11-23T04:26:51;2.70;;;1.40;;
18702;SDS011;9481;48.796;9.210;2022-11-23T04:29:17;2.13;;;1.00;;
18702;SDS011;9481;48.796;9.210;2022-11-23T04:31:43;5.00;;;1.70;;
18702;SDS011;9481;48.796;9.210;2022-11-23T04:34:09;3.97;;;1.07;;
18702;SDS011;9481;48.796;9.210;2022-11-23T04:36:34;3.23;;;1.20;;
18702;SDS011;9481;48.796;9.210;2022-11-23T04:39:00;3.47;;;1.20;;
18702;SDS011;9481;48.796;9.210;2022-11-23T04:41:28;2.60;;;1.17;;
18702;SDS011;9481;48.796;9.210;2022-11-23T04:43:53;3.20;;;1.77;;
18702;SDS011;9481;48.796;9.210;2022-11-23T04:46:19;4.13;;;1.20;;
18702;SDS011;9481;48.796;9.210;2022-11-23T04:48:45;2.00;;;0.90;;
18702;SDS011;9481;48.796;9.210;2022-11-23T04:51:12;2.17;;;1.00;;
18702;SDS011;9481;48.796;9.210;2022-11-23T04:53:38;3.83;;;1.10;;
18702;SDS011;9481;48.796;9.210;2022-11-23T04:56:04;1.67;;;1.00;;
18702;SDS011;9481;48.796;9.210;2022-11-23T04:58:30;2.30;;;1.17;;
18702;SDS011;9481;48.796;9.210;2022-11-23T05:00:57;4.70;;;1.30;;
18702;SDS011;9481;48.796;9.210;2022-11-23T05:03:23;3.50;;;1.30;;
18702;SDS011;9481;48.796;9.210;2022-11-23T05:05:49;2.60;;;0.90;;
18702;SDS011;9481;48.796;9.210;2022-11-23T05:08:15;5.10;;;1.20;;
18702;SDS011;9481;48.796;9.210;2022-11-23T05:10:41;3.37;;;1.20;;
18702;SDS011;9481;48.796;9.210;2022-11-23T05:13:07;3.33;;;1.10;;
18702;SDS011;9481;48.796;9.210;2022-11-23T05:15:33;2.47;;;1.00;;
18702;SDS011;9481;48.796;9.210;2022-11-23T05:17:59;3.73;;;1.40;;
18702;SDS011;9481;48.796;9.210;2022-11-23T05:20:30;5.07;;;1.17;;
18702;SDS011;9481;48.796;9.210;2022-11-23T05:22:58;2.57;;;1.30;;
18702;SDS011;9481;48.796;9.210;2022-11-23T05:25:23;6.90;;;1.60;;
18702;SDS011;9481;48.796;9.210;2022-11-23T05:27:50;2.27;;;1.10;;
18702;SDS011;9481;48.796;9.210;2022-11-23T05:30:16;4.33;;;1.07;;
18702;SDS011;9481;48.796;9.210;2022-11-23T05:32:43;3.03;;;1.00;;
18702;SDS011;9481;48.796;9.210;2022-11-23T05:35:09;4.57;;;1.50;;
18702;SDS011;9481;48.796;9.210;2022-11-23T05:37:36;2.47;;;1.10;;
18702;SDS011;9481;48.796;9.210;2022-11-23T05:40:03;4.33;;;1.30;;
18702;SDS011;9481;48.796;9.210;2022-11-23T05:42:30;3.67;;;1.30;;
18702;SDS011;9481;48.796;9.210;2022-11-23T05:44:56;6.13;;;1.70;;
18702;SDS011;9481;48.796;9.210;2022-11-23T05:47:22;3.80;;;1.17;;
18702;SDS011;9481;48.796;9.210;2022-11-23T05:49:48;3.03;;;1.20;;
18702;SDS011;9481;48.796;9.210;2022-11-23T05:52:15;2.37;;;1.40;;
18702;SDS011;9481;48.796;9.210;2022-11-23T05:54:41;4.00;;;1.53;;
18702;SDS011;9481;48.796;9.210;2022-11-23T05:57:07;3.73;;;1.40;;
18702;SDS011;9481;48.796;9.210;2022-11-23T05:59:33;5.07;;;1.87;;
18702;SDS011;9481;48.796;9.210;2022-11-23T06:01:59;4.33;;;1.60;;
18702;SDS011;9481;48.796;9.210;2022-11-23T06:04:25;3.53;;;1.50;;
18702;SDS011;9481;48.796;9.210;2022-11-23T06:06:51;3.50;;;1.57;;
18702;SDS011;9481;48.796;9.210;2022-11-23T06:09:18;5.00;;;1.70;;
18702;SDS011;9481;48.796;9.210;2022-11-23T06:11:44;4.90;;;1.60;;
18702;SDS011;9481;48.796;9.210;2022-11-23T06:14:12;7.20;;;1.60;;
18702;SDS011;9481;48.796;9.210;2022-11-23T06:16:38;4.63;;;1.80;;
18702;SDS011;9481;48.796;9.210;2022-11-23T06:19:04;3.47;;;1.40;;
18702;SDS011;9481;48.796;9.210;2022-11-23T06:21:30;6.07;;;1.60;;
18702;SDS011;9481;48.796;9.210;2022-11-23T06:23:55;8.20;;;2.47;;
18702;SDS011;9481;48.796;9.210;2022-11-23T06:26:21;5.63;;;2.20;;
18702;SDS011;9481;48.796;9.210;2022-11-23T06:28:47;3.30;;;1.80;;
18702;SDS011;9481;48.796;9.210;2022-11-23T06:31:13;4.10;;;1.57;;
18702;SDS011;9481;48.796;9.210;2022-11-23T06:33:39;3.33;;;1.40;;
18702;SDS011;9481;48.796;9.210;2022-11-23T06:36:04;3.73;;;1.73;;
18702;SDS011;9481;48.796;9.210;2022-11-23T06:38:31;5.50;;;1.40;;
18702;SDS011;9481;48.796;9.210;2022-11-23T06:40:57;4.73;;;1.50;;
18702;SDS011;9481;48.796;9.210;2022-11-23T06:43:24;8.80;;;1.40;;
18702;SDS011;9481;48.796;9.210;2022-11-23T06:45:51;6.13;;;1.70;;
18702;SDS011;9481;48.796;9.210;2022-11-23T06:48:18;5.63;;;1.33;;
18702;SDS011;9481;48.796;9.210;2022-11-23T06:50:43;3.20;;;1.70;;
18702;SDS011;9481;48.796;9.210;2022-11-23T06:53:09;4.33;;;1.70;;
18702;SDS011;9481;48.796;9.210;2022-11-23T06:55:37;6.50;;;1.60;;
18702;SDS011;9481;48.796;9.210;2022-11-23T06:58:03;5.33;;;1.50;;
18702;SDS011;9481;48.796;9.210;2022-11-23T07:00:30;6.80;;;1.80;;
18702;SDS011;9481;48.796;9.210;2022-11-23T07:02:57;5.57;;;1.80;;
18702;SDS011;9481;48.796;9.210;2022-11-23T07:05:24;5.97;;;2.00;;
18702;SDS011;9481;48.796;9.210;2022-11-23T07:07:50;5.37;;;1.90;;
18702;SDS011;9481;48.796;9.210;2022-11-23T07:10:17;6.07;;;1.83;;
18702;SDS011;9481;48.796;9.210;2022-11-23T07:12:44;4.13;;;1.70;;
18702;SDS011;9481;48.796;9.210;2022-11-23T07:15:10;4.70;;;1.60;;
18702;SDS011;9481;48.796;9.210;2022-11-23T07:17:38;5.30;;;1.90;;
18702;SDS011;9481;48.796;9.210;2022-11-23T07:20:06;3.17;;;1.93;;
18702;SDS011;9481;48.796;9.210;2022-11-23T07:22:33;6.90;;;1.70;;
18702;SDS011;9481;48.796;9.210;2022-11-23T07:24:59;11.37;;;2.20;;
18702;SDS011;9481;48.796;9.210;2022-11-23T07:27:25;5.87;;;2.50;;
18702;SDS011;9481;48.796;9.210;2022-11-23T07:29:51;3.30;;;1.70;;
18702;SDS011;9481;48.796;9.210;2022-11-23T07:32:16;4.77;;;1.73;;
18702;SDS011;9481;48.796;9.210;2022-11-23T07:34:42;4.23;;;1.80;;
18702;SDS011;9481;48.796;9.210;2022-11-23T07:37:08;6.37;;;2.00;;
18702;SDS011;9481;48.796;9.210;2022-11-23T07:39:33;8.43;;;2.33;;
18702;SDS011;9481;48.796;9.210;2022-11-23T07:41:59;4.70;;;2.20;;
18702;SDS011;9481;48.796;9.210;2022-11-23T07:44:24;6.10;;;2.17;;
18702;SDS011;9481;48.796;9.210;2022-11-23T07:46:51;4.80;;;2.17;;
18702;SDS011;9481;48.796;9.210;2022-11-23T07:49:18;6.60;;;2.30;;
18702;SDS011;9481;48.796;9.210;2022-11-23T07:51:43;6.20;;;2.07;;
18702;SDS011;9481;48.796;9.210;2022-11-23T07:54:09;9.57;;;2.37;;
18702;SDS011;9481;48.796;9.210;2022-11-23T07:56:35;3.60;;;2.10;;
18702;SDS011;9481;48.796;9.210;2022-11-23T07:59:00;10.33;;;2.37;;
18702;SDS011;9481;48.796;9.210;2022-11-23T08:01:26;5.37;;;2.20;;
18702;SDS011;9481;48.796;9.210;2022-11-23T08:03:51;6.53;;;2.20;;
18702;SDS011;9481;48.796;9.210;2022-11-23T08:06:17;5.00;;;2.07;;
18702;SDS011;9481;48.796;9.210;2022-11-23T08:08:43;5.10;;;2.50;;
18702;SDS011;9481;48.796;9.210;2022-11-23T08:11:09;4.97;;;2.27;;
18702;SDS011;9481;48.796;9.210;2022-11-23T08:13:38;6.00;;;2.27;;
18702;SDS011;9481;48.796;9.210;2022-11-23T08:16:05;3.83;;;2.20;;
18702;SDS011;9481;48.796;9.210;2022-11-23T08:18:31;7.63;;;2.70;;
18702;SDS011;9481;48.796;9.210;2022-11-23T08:20:59;5.60;;;1.90;;
18702;SDS011;9481;48.796;9.210;2022-11-23T08:23:25;6.43;;;2.63;;
18702;SDS011;9481;48.796;9.210;2022-11-23T08:25:51;4.03;;;2.10;;
18702;SDS011;9481;48.796;9.210;2022-11-23T08:28:17;4.00;;;1.83;;
18702;SDS011;9481;48.796;9.210;2022-11-23T08:30:44;4.43;;;1.90;;
18702;SDS011;9481;48.796;9.210;2022-11-23T08:33:11;4.60;;;2.17;;
18702;SDS011;9481;48.796;9.210;2022-11-23T08:35:38;6.57;;;2.07;;
18702;SDS011;9481;48.796;9.210;2022-11-23T08:38:06;5.27;;;1.87;;
18702;SDS011;9481;48.796;9.210;2022-11-23T08:40:34;3.83;;;1.90;;
18702;SDS011;9481;48.796;9.210;2022-11-23T08:43:01;4.27;;;1.80;;
18702;SDS011;9481;48.796;9.210;2022-11-23T08:45:27;3.93;;;1.90;;
18702;SDS011;9481;48.796;9.210;2022-11-23T08:47:53;8.53;;;3.03;;
18702;SDS011;9481;48.796;9.210;2022-11-23T08:50:24;4.97;;;2.97;;
18702;SDS011;9481;48.796;9.210;2022-11-23T08:52:54;6.03;;;2.80;;
18702;SDS011;9481;48.796;9.210;2022-11-23T08:55:21;4.70;;;2.10;;
18702;SDS011;9481;48.796;9.210;2022-11-23T08:57:48;4.80;;;2.23;;
18702;SDS011;9481;48.796;9.210;2022-11-23T09:00:14;7.10;;;2.20;;
18702;SDS011;9481;48.796;9.210;2022-11-23T09:02:40;6.10;;;2.00;;
18702;SDS011;9481;48.796;9.210;2022-11-23T09:05:06;5.27;;;1.90;;
18702;SDS011;9481;48.796;9.210;2022-11-23T09:07:33;6.37;;;2.30;;
18702;SDS011;9481;48.796;9.210;2022-11-23T09:09:58;4.80;;;1.80;;
18702;SDS011;9481;48.796;9.210;2022-11-23T09:12:24;6.17;;;2.10;;
18702;SDS011;9481;48.796;9.210;2022-11-23T09:14:50;4.77;;;1.80;;
18702;SDS011;9481;48.796;9.210;2022-11-23T09:17:17;9.70;;;2.40;;
18702;SDS011;9481;48.796;9.210;2022-11-23T09:19:42;7.03;;;2.17;;
18702;SDS011;9481;48.796;9.210;2022-11-23T09:22:08;7.07;;;2.50;;
18702;SDS011;9481;48.796;9.210;2022-11-23T09:24:34;4.77;;;1.90;;
18702;SDS011;9481;48.796;9.210;2022-11-23T09:26:59;4.63;;;2.00;;
18702;SDS011;9481;48.796;9.210;2022-11-23T09:29:25;5.93;;;2.47;;
18702;SDS011;9481;48.796;9.210;2022-11-23T09:31:51;5.03;;;2.20;;
18702;SDS011;9481;48.796;9.210;2022-11-23T09:34:17;7.93;;;2.10;;
18702;SDS011;9481;48.796;9.210;2022-11-23T09:36:42;5.17;;;2.03;;
18702;SDS011;9481;48.796;9.210;2022-11-23T09:39:08;5.30;;;2.20;;
18702;SDS011;9481;48.796;9.210;2022-11-23T09:44:29;3.70;;;1.47;;
18702;SDS011;9481;48.796;9.210;2022-11-23T09:50:42;5.30;;;1.73;;
18702;SDS011;9481;48.796;9.210;2022-11-23T09:53:20;3.40;;;1.60;;
18702;SDS011;9481;48.796;9.210;2022-11-23T09:55:56;3.87;;;1.67;;
18702;SDS011;9481;48.796;9.210;2022-11-23T09:58:23;8.13;;;1.83;;
18702;SDS011;9481;48.796;9.210;2022-11-23T10:01:09;4.23;;;1.40;;
18702;SDS011;9481;48.796;9.210;2022-11-23T10:03:40;5.07;;;1.70;;
18702;SDS011;9481;48.796;9.210;2022-11-23T10:11:59;3.43;;;1.43;;
18702;SDS011;9481;48.796;9.210;2022-11-23T10:14:45;4.27;;;1.43;;
18702;SDS011;9481;48.796;9.210;2022-11-23T10:22:56;3.03;;;1.57;;
18702;SDS011;9481;48.796;9.210;2022-11-23T10:25:36;6.10;;;1.40;;
18702;SDS011;9481;48.796;9.210;2022-11-23T10:28:12;4.70;;;1.60;;
18702;SDS011;9481;48.796;9.210;2022-11-23T10:30:41;4.60;;;1.43;;
18702;SDS011;9481;48.796;9.210;2022-11-23T10:35:57;3.37;;;1.60;;
18702;SDS011;9481;48.796;9.210;2022-11-23T10:38:24;3.37;;;1.50;;
18702;SDS011;9481;48.796;9.210;2022-11-23T10:43:31;3.80;;;1.80;;
18702;SDS011;9481;48.796;9.210;2022-11-23T10:48:51;3.90;;;1.80;;
18702;SDS011;9481;48.796;9.210;2022-11-23T10:54:00;3.87;;;1.40;;
18702;SDS011;9481;48.796;9.210;2022-11-23T10:56:29;2.83;;;1.60;;
18702;SDS011;9481;48.796;9.210;2022-11-23T10:58:56;3.73;;;1.77;;
18702;SDS011;9481;48.796;9.210;2022-11-23T11:01:23;3.17;;;1.60;;
18702;SDS011;9481;48.796;9.210;2022-11-23T11:03:52;3.37;;;1.60;;
18702;SDS011;9481;48.796;9.210;2022-11-23T11:06:24;2.67;;;1.60;;
18702;SDS011;9481;48.796;9.210;2022-11-23T11:09:05;2.70;;;1.53;;
18702;SDS011;9481;48.796;9.210;2022-11-23T11:11:45;2.67;;;1.37;;
18702;SDS011;9481;48.796;9.210;2022-11-23T11:14:22;3.70;;;1.70;;
18702;SDS011;9481;48.796;9.210;2022-11-23T11:16:49;3.10;;;1.60;;
18702;SDS011;9481;48.796;9.210;2022-11-23T11:19:34;2.73;;;1.60;;
18702;SDS011;9481;48.796;9.210;2022-11-23T11:22:03;3.20;;;1.67;;
18702;SDS011;9481;48.796;9.210;2022-11-23T11:25:00;4.27;;;1.60;;
18702;SDS011;9481;48.796;9.210;2022-11-23T11:27:29;2.53;;;1.47;;
18702;SDS011;9481;48.796;9.210;2022-11-23T11:29:57;1.93;;;1.47;;
18702;SDS011;9481;48.796;9.210;2022-11-23T11:33:27;2.33;;;1.40;;
18702;SDS011;9481;48.796;9.210;2022-11-23T11:36:06;1.93;;;1.27;;
18702;SDS011;9481;48.796;9.210;2022-11-23T11:38:36;2.23;;;1.50;;
18702;SDS011;9481;48.796;9.210;2022-11-23T11:41:08;2.17;;;1.50;;
18702;SDS011;9481;48.796;9.210;2022-11-23T11:43:43;3.40;;;1.80;;
18702;SDS011;9481;48.796;9.210;2022-11-23T11:46:28;3.27;;;1.70;;
18702;SDS011;9481;48.796;9.210;2022-11-23T11:49:05;2.17;;;1.70;;
18702;SDS011;9481;48.796;9.210;2022-11-23T11:51:40;1.93;;;1.30;;
18702;SDS011;9481;48.796;9.210;2022-11-23T11:57:02;2.17;;;1.10;;
18702;SDS011;9481;48.796;9.210;2022-11-23T11:59:41;2.03;;;1.40;;
18702;SDS011;9481;48.796;9.210;2022-11-23T12:02:25;1.43;;;1.10;;
18702;SDS011;9481;48.796;9.210;2022-11-23T12:11:07;1.57;;;1.17;;
18702;SDS011;9481;48.796;9.210;2022-11-23T12:13:37;1.40;;;1.23;;
18702;SDS011;9481;48.796;9.210;2022-11-23T12:25:15;1.67;;;1.00;;
18702;SDS011;9481;48.796;9.210;2022-11-23T12:36:58;0.90;;;0.70;;
18702;SDS011;9481;48.796;9.210;2022-11-23T12:40:02;1.10;;;0.80;;
18702;SDS011;9481;48.796;9.210;2022-11-23T12:43:05;1.30;;;0.87;;
18702;SDS011;9481;48.796;9.210;2022-11-23T12:45:44;2.17;;;1.10;;
18702;SDS011;9481;48.796;9.210;2022-11-23T12:57:20;1.60;;;1.07;;
18702;SDS011;9481;48.796;9.210;2022-11-23T13:00:11;1.50;;;1.10;;
18702;SDS011;9481;48.796;9.210;2022-11-23T13:11:33;2.40;;;1.10;;
18702;SDS011;9481;48.796;9.210;2022-11-23T13:14:51;2.20;;;1.10;;
18702;SDS011;9481;48.796;9.210;2022-11-23T13:20:18;1.73;;;0.97;;
18702;SDS011;9481;48.796;9.210;2022-11-23T13:23:12;1.20;;;0.90;;
18702;SDS011;9481;48.796;9.210;2022-11-23T13:25:38;1.50;;;1.03;;
18702;SDS011;9481;48.796;9.210;2022-11-23T13:28:25;2.47;;;1.10;;
18702;SDS011;9481;48.796;9.210;2022-11-23T13:31:16;1.23;;;0.97;;
18702;SDS011;9481;48.796;9.210;2022-11-23T13:33:49;2.23;;;1.00;;
18702;SDS011;9481;48.796;9.210;2022-11-23T13:38:56;2.03;;;1.03;;
18702;SDS011;9481;48.796;9.210;2022-11-23T13:44:11;2.07;;;0.87;;
18702;SDS011;9481;48.796;9.210;2022-11-23T13:46:42;2.07;;;0.83;;
18702;SDS011;9481;48.796;9.210;2022-11-23T13:55:00;1.83;;;0.80;;
18702;SDS011;9481;48.796;9.210;2022-11-23T13:57:30;1.93;;;0.90;;
18702;SDS011;9481;48.796;9.210;2022-11-23T14:09:04;2.10;;;0.83;;
18702;SDS011;9481;48.796;9.210;2022-11-23T14:11:58;1.70;;;0.67;;
18702;SDS011;9481;48.796;9.210;2022-11-23T14:17:42;1.30;;;0.73;;
18702;SDS011;9481;48.796;9.210;2022-11-23T14:23:04;0.93;;;0.70;;
18702;SDS011;9481;48.796;9.210;2022-11-23T14:26:16;1.07;;;0.67;;
18702;SDS011;9481;48.796;9.210;2022-11-23T14:35:11;3.07;;;0.90;;
18702;SDS011;9481;48.796;9.210;2022-11-23T14:38:12;1.20;;;0.70;;
18702;SDS011;9481;48.796;9.210;2022-11-23T14:41:19;3.17;;;0.87;;
18702;SDS011;9481;48.796;9.210;2022-11-23T14:43:48;1.10;;;0.80;;
18702;SDS011;9481;48.796;9.210;2022-11-23T14:46:21;1.30;;;0.90;;
18702;SDS011;9481;48.796;9.210;2022-11-23T14:48:49;3.13;;;0.90;;
18702;SDS011;9481;48.796;9.210;2022-11-23T14:51:22;2.63;;;0.97;;
18702;SDS011;9481;48.796;9.210;2022-11-23T14:53:53;2.67;;;1.00;;
18702;SDS011;9481;48.796;9.210;2022-11-23T14:56:33;1.87;;;1.00;;
18702;SDS011;9481;48.796;9.210;2022-11-23T14:59:24;1.53;;;0.80;;
18702;SDS011;9481;48.796;9.210;2022-11-23T15:01:56;1.73;;;0.80;;
18702;SDS011;9481;48.796;9.210;2022-11-23T15:04:31;1.00;;;0.80;;
18702;SDS011;9481;48.796;9.210;2022-11-23T15:09:47;1.90;;;1.07;;
18702;SDS011;9481;48.796;9.210;2022-11-23T15:12:42;2.50;;;1.33;;
18702;SDS011;9481;48.796;9.210;2022-11-23T15:15:16;2.30;;;1.07;;
18702;SDS011;9481;48.796;9.210;2022-11-23T15:17:51;2.27;;;1.00;;
18702;SDS011;9481;48.796;9.210;2022-11-23T15:20:30;2.83;;;0.90;;
18702;SDS011;9481;48.796;9.210;2022-11-23T15:23:00;3.73;;;2.00;;
18702;SDS011;9481;48.796;9.210;2022-11-23T15:25:27;3.10;;;1.20;;
18702;SDS011;9481;48.796;9.210;2022-11-23T15:27:54;1.83;;;1.20;;
18702;SDS011;9481;48.796;9.210;2022-11-23T15:30:21;2.37;;;1.10;;
18702;SDS011;9481;48.796;9.210;2022-11-23T15:33:07;1.67;;;0.90;;
18702;SDS011;9481;48.796;9.210;2022-11-23T15:35:36;3.43;;;1.27;;
18702;SDS011;9481;48.796;9.210;2022-11-23T15:38:06;3.10;;;1.00;;
18702;SDS011;9481;48.796;9.210;2022-11-23T15:40:39;3.17;;;1.20;;
18702;SDS011;9481;48.796;9.210;2022-11-23T15:43:14;1.43;;;1.03;;
18702;SDS011;9481;48.796;9.210;2022-11-23T15:48:11;3.00;;;1.30;;
18702;SDS011;9481;48.796;9.210;2022-11-23T15:53:15;2.30;;;1.17;;
18702;SDS011;9481;48.796;9.210;2022-11-23T15:55:42;5.67;;;1.50;;
18702;SDS011;9481;48.796;9.210;2022-11-23T15:58:08;3.53;;;1.10;;
18702;SDS011;9481;48.796;9.210;2022-11-23T16:00:46;1.13;;;0.90;;
18702;SDS011;9481;48.796;9.210;2022-11-23T16:03:25;3.00;;;1.40;;
18702;SDS011;9481;48.796;9.210;2022-11-23T16:08:37;2.47;;;1.07;;
18702;SDS011;9481;48.796;9.210;2022-11-23T16:11:05;5.10;;;1.20;;
18702;SDS011;9481;48.796;9.210;2022-11-23T16:13:43;2.80;;;1.30;;
18702;SDS011;9481;48.796;9.210;2022-11-23T16:16:16;2.33;;;1.00;;
18702;SDS011;9481;48.796;9.210;2022-11-23T16:18:46;1.53;;;1.00;;
18702;SDS011;9481;48.796;9.210;2022-11-23T16:21:20;1.67;;;1.03;;
18702;SDS011;9481;48.796;9.210;2022-11-23T16:23:48;1.77;;;0.93;;
18702;SDS011;9481;48.796;9.210;2022-11-23T16:26:18;1.97;;;0.80;;
18702;SDS011;9481;48.796;9.210;2022-11-23T16:28:53;3.40;;;1.10;;
18702;SDS011;9481;48.796;9.210;2022-11-23T16:31:26;4.33;;;1.30;;
18702;SDS011;9481;48.796;9.210;2022-11-23T16:34:14;2.67;;;1.33;;
18702;SDS011;9481;48.796;9.210;2022-11-23T16:36:42;3.13;;;1.30;;
18702;SDS011;9481;48.796;9.210;2022-11-23T16:39:08;4.27;;;1.90;;
18702;SDS011;9481;48.796;9.210;2022-11-23T16:41:34;1.67;;;1.30;;
18702;SDS011;9481;48.796;9.210;2022-11-23T16:43:59;2.37;;;1.47;;
18702;SDS011;9481;48.796;9.210;2022-11-23T16:46:25;5.00;;;1.90;;
18702;SDS011;9481;48.796;9.210;2022-11-23T16:48:50;3.20;;;1.60;;
18702;SDS011;9481;48.796;9.210;2022-11-23T16:51:18;3.80;;;1.57;;
18702;SDS011;9481;48.796;9.210;2022-11-23T16:53:44;4.37;;;1.90;;
18702;SDS011;9481;48.796;9.210;2022-11-23T16:56:13;3.10;;;1.47;;
18702;SDS011;9481;48.796;9.210;2022-11-23T16:58:50;2.90;;;1.50;;
18702;SDS011;9481;48.796;9.210;2022-11-23T17:01:25;5.07;;;1.67;;
18702;SDS011;9481;48.796;9.210;2022-11-23T17:03:54;3.83;;;1.50;;
18702;SDS011;9481;48.796;9.210;2022-11-23T17:06:20;3.60;;;1.60;;
18702;SDS011;9481;48.796;9.210;2022-11-23T17:08:49;3.67;;;1.50;;
18702;SDS011;9481;48.796;9.210;2022-11-23T17:11:23;4.03;;;1.40;;
18702;SDS011;9481;48.796;9.210;2022-11-23T17:13:51;2.43;;;1.43;;
18702;SDS011;9481;48.796;9.210;2022-11-23T17:16:20;3.37;;;1.60;;
18702;SDS011;9481;48.796;9.210;2022-11-23T17:18:50;1.47;;;1.30;;
18702;SDS011;9481;48.796;9.210;2022-11-23T17:21:16;2.07;;;1.33;;
18702;SDS011;9481;48.796;9.210;2022-11-23T17:23:41;2.47;;;1.10;;